Time;durP1;ratioP1;P1;durP2;ratioP2;P2;SDS_P1;SDS_P2;PMS_P1;PMS_P2;Temp;Humidity;BMP_temperature;BMP_pressure;BME280_temperature;BME280_humidity;BME280_pressure;Samples;Min_cycle;Max_cycle;Signal;HPM_P1;HPM_P2
2022/12/01 00:01:43;;;;;;;27.88;13.38;;;4.80;99.90;;;;;;5055579;28;20064;-66
2022/12/01 00:04:08;;;;;;;33.97;20.23;;;4.90;99.90;;;;;;5055577;28;20029;-67
2022/12/01 00:06:35;;;;;;;40.20;21.52;;;4.90;99.90;;;;;;5055732;28;20025;-66
2022/12/01 00:11:45;;;;;;;33.08;17.42;;;4.80;99.90;;;;;;5055243;28;20088;-67
2022/12/01 00:14:11;;;;;;;37.03;15.30;;;4.80;99.90;;;;;;5055911;28;20099;-66
2022/12/01 00:16:37;;;;;;;27.70;16.05;;;4.80;99.90;;;;;;5055549;28;20033;-66
2022/12/01 00:19:03;;;;;;;28.00;14.57;;;4.80;99.90;;;;;;5055570;28;20024;-67
2022/12/01 00:21:28;;;;;;;30.45;15.45;;;4.80;99.90;;;;;;5055168;28;20033;-67
2022/12/01 00:23:56;;;;;;;31.17;16.15;;;4.90;99.90;;;;;;5055265;28;20025;-67
2022/12/01 00:26:23;;;;;;;31.85;15.38;;;4.90;99.90;;;;;;5055119;28;20029;-67
2022/12/01 00:28:54;;;;;;;32.15;16.60;;;4.90;99.90;;;;;;5055264;28;20155;-66
2022/12/01 00:31:21;;;;;;;29.35;15.30;;;4.90;99.90;;;;;;5055060;28;20024;-67
2022/12/01 00:33:46;;;;;;;29.67;16.85;;;5.00;99.90;;;;;;5054940;28;20032;-65
2022/12/01 00:36:12;;;;;;;29.45;14.10;;;5.00;99.90;;;;;;5054089;28;20025;-67
2022/12/01 00:38:39;;;;;;;28.42;15.65;;;5.00;99.90;;;;;;5054974;28;20021;-67
2022/12/01 00:41:05;;;;;;;26.73;14.32;;;5.00;99.90;;;;;;5055154;28;20464;-67
2022/12/01 00:43:30;;;;;;;26.20;14.68;;;5.00;99.90;;;;;;5054812;28;20029;-66
2022/12/01 00:45:56;;;;;;;38.20;16.52;;;5.10;99.90;;;;;;5054703;28;20027;-65
2022/12/01 00:48:23;;;;;;;29.35;16.33;;;5.10;99.90;;;;;;5054815;28;20082;-67
2022/12/01 00:50:51;;;;;;;29.05;15.25;;;5.10;99.90;;;;;;5054741;28;20397;-66
2022/12/01 00:53:17;;;;;;;28.80;16.25;;;5.20;99.90;;;;;;5054513;28;20049;-67
2022/12/01 00:55:42;;;;;;;29.48;15.43;;;5.20;99.90;;;;;;5054945;28;20163;-67
2022/12/01 00:58:08;;;;;;;26.45;14.95;;;5.10;99.90;;;;;;5054775;28;20074;-67
2022/12/01 01:00:37;;;;;;;30.23;15.27;;;5.10;99.90;;;;;;5054527;28;20048;-66
2022/12/01 01:03:06;;;;;;;26.30;14.32;;;5.10;99.90;;;;;;5054749;28;20024;-66
2022/12/01 01:05:40;;;;;;;27.50;14.93;;;5.10;99.90;;;;;;5054359;28;20036;-66
2022/12/01 01:08:11;;;;;;;25.65;14.88;;;5.20;99.90;;;;;;5054929;28;20013;-66
2022/12/01 01:10:44;;;;;;;27.02;14.30;;;5.10;99.90;;;;;;5054987;28;20029;-67
2022/12/01 01:13:10;;;;;;;27.08;14.63;;;5.10;99.90;;;;;;5054924;28;20025;-66
2022/12/01 01:15:36;;;;;;;28.30;14.48;;;5.10;99.90;;;;;;5054462;28;20076;-65
2022/12/01 01:18:04;;;;;;;24.80;13.55;;;5.10;99.90;;;;;;5054160;28;20419;-66
2022/12/01 01:20:30;;;;;;;28.52;14.95;;;5.10;99.90;;;;;;5054366;28;20391;-67
2022/12/01 01:22:56;;;;;;;26.10;14.00;;;5.10;99.90;;;;;;5054029;28;20020;-65
2022/12/01 01:25:22;;;;;;;26.23;13.43;;;5.10;99.90;;;;;;5054197;28;20028;-66
2022/12/01 01:27:48;;;;;;;24.20;13.48;;;5.00;99.90;;;;;;5054053;28;20092;-67
2022/12/01 01:30:14;;;;;;;23.17;13.57;;;5.10;99.90;;;;;;5053931;28;20025;-66
2022/12/01 01:32:40;;;;;;;25.70;13.63;;;5.10;99.90;;;;;;5053927;28;20013;-66
2022/12/01 01:35:07;;;;;;;25.48;12.75;;;5.20;99.90;;;;;;5054384;28;20116;-67
2022/12/01 01:37:32;;;;;;;34.30;15.43;;;5.10;99.90;;;;;;5054349;28;20020;-67
2022/12/01 01:39:58;;;;;;;25.85;14.65;;;5.20;99.90;;;;;;5053746;28;20028;-67
2022/12/01 01:42:23;;;;;;;27.92;13.75;;;5.20;99.90;;;;;;5054063;28;20131;-65
2022/12/01 01:44:50;;;;;;;23.90;13.45;;;5.20;99.90;;;;;;5053706;28;20464;-66
2022/12/01 01:47:38;;;;;;;25.88;13.82;;;5.20;99.90;;;;;;5053770;28;20440;-67
2022/12/01 01:50:08;;;;;;;23.70;12.73;;;5.20;99.90;;;;;;5053873;28;20021;-67
2022/12/01 01:52:41;;;;;;;27.67;14.10;;;5.20;99.90;;;;;;5053773;28;20021;-65
2022/12/01 01:55:07;;;;;;;27.25;13.43;;;5.30;99.90;;;;;;5053259;28;20068;-67
2022/12/01 01:57:33;;;;;;;24.25;13.50;;;5.30;99.90;;;;;;5053659;28;20434;-65
2022/12/01 02:00:07;;;;;;;25.60;13.60;;;5.20;99.90;;;;;;5053408;28;20135;-66
2022/12/01 02:02:39;;;;;;;25.10;14.15;;;5.20;99.90;;;;;;5053789;28;20025;-67
2022/12/01 02:05:09;;;;;;;25.90;14.25;;;5.20;99.90;;;;;;5053126;28;20021;-66
2022/12/01 02:07:38;;;;;;;28.88;14.07;;;5.10;99.90;;;;;;5053758;28;20021;-66
2022/12/01 02:10:05;;;;;;;24.15;12.90;;;5.10;99.90;;;;;;5053340;28;20025;-66
2022/12/01 02:12:44;;;;;;;25.98;13.45;;;5.00;99.90;;;;;;5053182;28;20029;-65
2022/12/01 02:15:31;;;;;;;24.70;13.27;;;5.00;99.90;;;;;;5053229;28;20029;-66
2022/12/01 02:18:32;;;;;;;23.38;12.93;;;5.10;99.90;;;;;;5053610;28;20025;-67
2022/12/01 02:21:13;;;;;;;24.88;14.07;;;5.10;99.90;;;;;;5053784;28;20083;-67
2022/12/01 02:24:00;;;;;;;25.50;13.15;;;5.10;99.90;;;;;;5053538;28;20472;-67
2022/12/01 02:26:34;;;;;;;25.67;13.60;;;5.00;99.90;;;;;;5053492;28;20060;-66
2022/12/01 02:29:21;;;;;;;25.77;12.77;;;4.90;99.90;;;;;;5053420;28;20083;-66
2022/12/01 02:31:46;;;;;;;27.15;14.70;;;4.80;99.90;;;;;;5053718;28;20107;-66
2022/12/01 02:34:17;;;;;;;26.75;13.77;;;4.70;99.90;;;;;;5053136;28;20056;-66
2022/12/01 02:36:54;;;;;;;26.77;14.55;;;4.60;99.90;;;;;;5053423;28;20024;-66
2022/12/01 02:39:22;;;;;;;26.67;13.30;;;4.60;99.90;;;;;;5053358;28;20025;-66
2022/12/01 02:42:52;;;;;;;29.70;14.52;;;4.60;99.90;;;;;;5053191;28;20025;-66
2022/12/01 02:45:27;;;;;;;25.80;13.00;;;4.50;99.90;;;;;;5020143;28;20037;-67
2022/12/01 02:47:56;;;;;;;28.48;14.63;;;4.50;99.90;;;;;;5053287;28;20382;-66
2022/12/01 02:50:24;;;;;;;29.13;14.07;;;4.60;99.90;;;;;;5052861;28;20025;-66
2022/12/01 02:52:50;;;;;;;24.67;15.57;;;4.70;99.90;;;;;;5053101;28;20036;-64
2022/12/01 02:55:16;;;;;;;26.67;14.02;;;4.70;99.90;;;;;;5053041;28;20052;-67
2022/12/01 02:57:41;;;;;;;25.90;13.38;;;4.70;99.90;;;;;;5053160;28;20544;-66
2022/12/01 03:00:12;;;;;;;28.67;13.93;;;4.60;99.90;;;;;;5054700;28;20029;-67
2022/12/01 03:02:56;;;;;;;29.30;14.23;;;4.40;99.90;;;;;;5057122;28;20027;-65
2022/12/01 03:05:36;;;;;;;25.48;13.52;;;4.30;99.90;;;;;;5056980;28;20029;-65
2022/12/01 03:08:28;;;;;;;29.00;13.82;;;4.20;99.90;;;;;;5035884;28;20711;-66
2022/12/01 03:10:57;;;;;;;25.40;13.82;;;4.20;99.90;;;;;;5037217;28;20490;-66
2022/12/01 03:13:45;;;;;;;25.17;13.60;;;4.20;99.90;;;;;;5036665;28;20033;-66
2022/12/01 03:16:43;;;;;;;27.48;13.52;;;4.10;99.90;;;;;;5036839;28;20488;-67
2022/12/01 03:19:31;;;;;;;25.70;14.05;;;4.10;99.90;;;;;;5022453;28;20120;-67
2022/12/01 03:22:18;;;;;;;25.95;13.63;;;4.10;99.90;;;;;;5037180;28;20029;-66
2022/12/01 03:24:47;;;;;;;26.35;12.70;;;3.90;99.90;;;;;;5036753;28;20490;-67
2022/12/01 03:27:17;;;;;;;31.48;15.02;;;3.70;99.90;;;;;;5036643;28;20483;-67
2022/12/01 03:29:47;;;;;;;26.58;14.43;;;3.70;99.90;;;;;;5036312;28;20018;-66
2022/12/01 03:32:42;;;;;;;25.92;13.25;;;3.60;99.90;;;;;;5036523;28;20114;-66
2022/12/01 03:35:15;;;;;;;26.25;13.50;;;3.50;99.90;;;;;;5036561;28;20025;-66
2022/12/01 03:37:55;;;;;;;28.40;13.80;;;3.40;99.90;;;;;;5036807;28;20072;-67
2022/12/01 03:40:24;;;;;;;;;;;3.30;99.90;;;;;;5036822;28;20025;-67
2022/12/01 03:43:03;;;;;;;25.83;13.30;;;3.20;99.90;;;;;;5018280;28;20329;-65
2022/12/01 03:45:47;;;;;;;24.60;12.93;;;3.10;99.90;;;;;;5036059;28;20112;-67
2022/12/01 03:48:13;;;;;;;26.70;13.80;;;3.10;99.90;;;;;;5036012;28;20120;-66
2022/12/01 03:51:08;;;;;;;26.45;14.15;;;3.10;99.90;;;;;;5035938;28;20037;-66
2022/12/01 03:53:43;;;;;;;27.52;14.23;;;3.10;99.90;;;;;;5027883;28;20040;-66
2022/12/01 03:56:13;;;;;;;27.92;13.70;;;3.10;99.90;;;;;;5055757;28;20029;-67
2022/12/01 03:58:44;;;;;;;26.10;14.00;;;3.00;99.90;;;;;;5055659;28;20032;-66
2022/12/01 04:01:11;;;;;;;31.88;13.93;;;3.10;99.90;;;;;;5055622;28;20098;-66
2022/12/01 04:03:37;;;;;;;29.42;13.07;;;2.90;99.90;;;;;;5055562;28;20051;-66
2022/12/01 04:06:03;;;;;;;29.33;13.88;;;2.80;99.90;;;;;;5055636;28;20023;-67
2022/12/01 04:08:29;;;;;;;29.08;14.15;;;2.80;99.90;;;;;;5055620;28;20092;-67
2022/12/01 04:10:56;;;;;;;25.73;13.95;;;2.80;99.90;;;;;;5054241;28;20033;-68
2022/12/01 04:13:22;;;;;;;31.25;12.90;;;2.70;99.90;;;;;;5055350;28;20056;-67
2022/12/01 04:15:52;;;;;;;24.77;12.25;;;2.70;99.90;;;;;;5055330;28;20053;-66
2022/12/01 04:18:18;;;;;;;24.52;13.20;;;2.70;99.90;;;;;;5055315;28;20029;-67
2022/12/01 04:20:48;;;;;;;25.15;13.30;;;2.60;99.90;;;;;;5055251;28;20064;-66
2022/12/01 04:23:58;;;;;;;27.13;13.80;;;2.50;99.90;;;;;;5055433;28;20028;-67
2022/12/01 04:26:00;;;;;;;28.08;13.27;;;2.50;99.90;;;;;;5055032;28;20099;-65
2022/12/01 04:28:26;;;;;;;28.45;13.73;;;2.50;99.90;;;;;;5055225;28;20060;-67
2022/12/01 04:30:52;;;;;;;26.48;13.32;;;2.40;99.90;;;;;;5055343;28;20029;-68
2022/12/01 04:33:17;;;;;;;31.58;14.40;;;2.40;99.90;;;;;;5055108;28;20122;-67
2022/12/01 04:35:43;;;;;;;30.70;13.48;;;2.30;99.90;;;;;;5055511;28;20029;-67
2022/12/01 04:38:09;;;;;;;28.10;13.15;;;2.30;99.90;;;;;;5055024;28;20437;-67
2022/12/01 04:40:36;;;;;;;24.13;12.10;;;2.30;99.90;;;;;;5054828;28;20025;-67
2022/12/01 04:43:02;;;;;;;25.58;13.02;;;2.20;99.90;;;;;;5055111;28;20129;-66
2022/12/01 04:45:27;;;;;;;27.48;13.60;;;2.00;99.90;;;;;;5054890;28;20116;-66
2022/12/01 04:47:53;;;;;;;26.27;13.07;;;2.00;99.90;;;;;;5054847;28;20528;-65
2022/12/01 04:50:19;;;;;;;25.98;11.80;;;2.00;99.90;;;;;;5054785;28;20029;-65
2022/12/01 04:52:45;;;;;;;24.70;11.80;;;1.90;99.90;;;;;;5054709;28;20024;-67
2022/12/01 04:55:14;;;;;;;27.55;13.00;;;1.90;99.90;;;;;;5054299;28;20126;-66
2022/12/01 04:57:40;;;;;;;25.23;12.55;;;1.90;99.90;;;;;;5054487;28;20479;-65
2022/12/01 05:00:11;;;;;;;27.45;12.38;;;1.80;99.90;;;;;;5054773;28;20021;-65
2022/12/01 05:02:38;;;;;;;27.13;12.23;;;1.80;99.90;;;;;;5036431;28;20021;-66
2022/12/01 05:05:05;;;;;;;23.38;12.30;;;1.80;99.90;;;;;;5054778;28;20440;-65
2022/12/01 05:07:31;;;;;;;26.02;13.10;;;1.70;99.90;;;;;;5054439;28;20143;-66
2022/12/01 05:09:57;;;;;;;27.60;13.52;;;1.70;99.90;;;;;;5054537;28;20518;-66
2022/12/01 05:12:22;;;;;;;24.42;12.45;;;1.70;99.90;;;;;;5054454;28;20522;-65
2022/12/01 05:14:48;;;;;;;26.23;13.45;;;1.70;99.90;;;;;;5054385;28;20395;-67
2022/12/01 05:17:14;;;;;;;27.75;12.68;;;1.80;99.90;;;;;;5054550;28;20032;-66
2022/12/01 05:22:23;;;;;;;24.23;12.10;;;1.70;99.90;;;;;;5053871;28;20025;-66
2022/12/01 05:24:49;;;;;;;24.05;11.68;;;1.80;99.90;;;;;;5054231;28;20025;-66
2022/12/01 05:27:15;;;;;;;27.42;11.90;;;1.70;99.90;;;;;;5054257;28;20475;-66
2022/12/01 05:29:40;;;;;;;25.40;12.65;;;1.50;99.90;;;;;;5053906;28;20025;-66
2022/12/01 05:32:07;;;;;;;23.77;11.45;;;1.40;99.90;;;;;;5054143;28;20036;-65
2022/12/01 05:34:32;;;;;;;27.10;12.88;;;1.40;99.90;;;;;;5053953;28;20029;-67
2022/12/01 05:36:58;;;;;;;23.95;12.07;;;1.40;99.90;;;;;;5054068;28;20399;-66
2022/12/01 05:39:23;;;;;;;26.58;13.77;;;1.30;99.90;;;;;;5054182;28;20092;-67
2022/12/01 05:41:49;;;;;;;34.38;21.17;;;1.40;99.90;;;;;;5054285;28;20024;-66
2022/12/01 05:44:15;;;;;;;30.85;14.40;;;1.30;99.90;;;;;;5053984;28;20028;-65
2022/12/01 05:46:40;;;;;;;31.70;15.23;;;1.40;99.90;;;;;;5053770;28;20387;-67
2022/12/01 05:49:07;;;;;;;34.63;15.50;;;1.30;99.90;;;;;;5053597;28;20468;-65
2022/12/01 05:51:32;;;;;;;28.35;14.15;;;1.30;99.90;;;;;;5053656;28;20052;-67
2022/12/01 05:53:59;;;;;;;27.02;13.40;;;1.30;99.90;;;;;;5053319;28;20075;-67
2022/12/01 05:56:25;;;;;;;21.50;10.70;;;1.30;99.90;;;;;;5054190;28;20033;-65
2022/12/01 05:58:51;;;;;;;23.85;11.93;;;1.20;99.90;;;;;;5053571;28;20036;-67
2022/12/01 06:01:16;;;;;;;27.52;12.68;;;1.10;99.90;;;;;;5054032;28;20024;-66
2022/12/01 06:03:42;;;;;;;30.88;13.20;;;1.00;99.90;;;;;;5053440;28;20483;-65
2022/12/01 06:06:07;;;;;;;25.95;11.57;;;1.00;99.90;;;;;;5053613;28;20501;-66
2022/12/01 06:08:33;;;;;;;25.70;11.52;;;1.10;99.90;;;;;;5053614;28;20383;-67
2022/12/01 06:10:59;;;;;;;24.63;11.60;;;1.10;99.90;;;;;;5053656;28;20029;-66
2022/12/01 06:13:25;;;;;;;22.88;11.82;;;0.90;99.90;;;;;;5053306;28;20037;-67
2022/12/01 06:16:02;;;;;;;25.23;12.15;;;0.90;99.90;;;;;;5053660;28;20036;-66
2022/12/01 06:18:31;;;;;;;23.10;11.95;;;0.90;99.90;;;;;;5053687;28;20428;-67
2022/12/01 06:20:57;;;;;;;27.20;12.68;;;0.80;99.90;;;;;;5053064;28;20104;-66
2022/12/01 06:23:23;;;;;;;32.38;13.95;;;0.80;99.90;;;;;;5053257;28;20063;-65
2022/12/01 06:25:49;;;;;;;27.85;14.40;;;0.90;99.90;;;;;;5053403;28;20017;-66
2022/12/01 06:28:15;;;;;;;27.55;12.82;;;0.80;99.90;;;;;;5053357;28;20072;-67
2022/12/01 06:30:40;;;;;;;24.75;12.65;;;0.80;99.90;;;;;;5053309;28;20498;-65
2022/12/01 06:33:06;;;;;;;24.00;11.93;;;0.80;99.90;;;;;;5053140;28;20048;-65
2022/12/01 06:35:32;;;;;;;25.88;13.20;;;0.80;99.90;;;;;;5055997;28;20104;-67
2022/12/01 06:37:58;;;;;;;23.23;11.63;;;0.70;99.90;;;;;;5057221;28;20033;-66
2022/12/01 06:40:23;;;;;;;30.33;12.00;;;0.80;99.90;;;;;;5057377;28;20021;-66
2022/12/01 06:42:49;;;;;;;26.23;12.18;;;0.80;99.90;;;;;;5057232;28;20066;-66
2022/12/01 06:45:14;;;;;;;29.92;12.18;;;0.80;99.90;;;;;;5057002;28;20078;-67
2022/12/01 06:47:40;;;;;;;27.02;12.18;;;0.80;99.90;;;;;;5057055;28;20021;-66
2022/12/01 06:50:08;;;;;;;26.02;14.32;;;0.80;99.90;;;;;;5056949;28;20025;-66
2022/12/01 06:52:37;;;;;;;24.52;11.82;;;0.80;99.90;;;;;;5057087;28;20028;-66
2022/12/01 06:55:04;;;;;;;25.80;12.93;;;0.70;99.90;;;;;;5056502;28;20041;-67
2022/12/01 06:57:31;;;;;;;23.08;11.45;;;0.70;99.90;;;;;;5057125;28;20021;-67
2022/12/01 06:59:57;;;;;;;24.10;11.73;;;0.80;99.90;;;;;;5056801;28;20394;-67
2022/12/01 07:02:22;;;;;;;25.85;11.68;;;0.80;99.90;;;;;;5056801;28;20096;-65
2022/12/01 07:04:48;;;;;;;32.33;13.27;;;0.80;99.90;;;;;;5056734;28;20025;-66
2022/12/01 07:07:14;;;;;;;28.15;11.95;;;0.80;99.90;;;;;;5056989;28;20104;-66
2022/12/01 07:09:40;;;;;;;24.90;12.02;;;0.80;99.90;;;;;;5056926;28;20355;-67
2022/12/01 07:12:06;;;;;;;26.90;12.98;;;0.80;99.90;;;;;;5056876;28;20086;-65
2022/12/01 07:14:32;;;;;;;29.35;11.60;;;0.70;99.90;;;;;;5056436;28;20025;-65
2022/12/01 07:16:58;;;;;;;32.17;13.07;;;0.70;99.90;;;;;;5056523;28;20029;-65
2022/12/01 07:19:24;;;;;;;31.20;13.40;;;0.70;99.90;;;;;;5056546;28;20031;-67
2022/12/01 07:21:49;;;;;;;24.15;12.98;;;0.70;99.90;;;;;;5056340;28;20017;-67
2022/12/01 07:24:15;;;;;;;29.33;13.63;;;0.60;99.90;;;;;;5056816;28;20025;-64
2022/12/01 07:26:41;;;;;;;30.70;13.00;;;0.60;99.90;;;;;;5056314;28;20047;-66
2022/12/01 07:29:09;;;;;;;26.70;13.13;;;0.60;99.90;;;;;;5056588;28;20391;-66
2022/12/01 07:31:35;;;;;;;33.67;14.25;;;0.60;99.90;;;;;;5056290;28;20025;-67
2022/12/01 07:34:01;;;;;;;30.90;13.48;;;0.60;99.90;;;;;;5056100;28;20056;-66
2022/12/01 07:36:27;;;;;;;27.23;13.93;;;0.60;99.90;;;;;;5056116;28;20480;-66
2022/12/01 07:38:52;;;;;;;28.88;14.10;;;0.60;99.90;;;;;;5056257;28;20027;-66
2022/12/01 07:41:18;;;;;;;29.50;13.18;;;0.60;99.90;;;;;;5056249;28;20072;-65
2022/12/01 07:43:45;;;;;;;28.98;12.25;;;0.60;99.90;;;;;;5055867;28;20387;-66
2022/12/01 07:46:17;;;;;;;32.70;13.07;;;0.60;99.90;;;;;;5055672;28;20027;-67
2022/12/01 07:48:42;;;;;;;24.27;12.43;;;0.70;99.90;;;;;;5056208;28;20021;-67
2022/12/01 07:51:11;;;;;;;32.85;14.93;;;0.80;99.90;;;;;;5055791;28;20040;-67
2022/12/01 07:53:38;;;;;;;32.67;14.20;;;0.80;99.90;;;;;;5055566;28;20049;-67
2022/12/01 07:56:04;;;;;;;26.90;13.57;;;0.90;99.90;;;;;;5055607;28;20098;-66
2022/12/01 07:58:30;;;;;;;32.20;16.17;;;1.10;99.90;;;;;;5079092;28;20531;-67
2022/12/01 08:00:56;;;;;;;32.80;15.77;;;1.30;99.90;;;;;;5075767;28;20035;-70
2022/12/01 08:03:22;;;;;;;36.13;18.30;;;1.30;99.90;;;;;;5075642;28;20013;-65
2022/12/01 08:05:57;;;;;;;30.58;15.82;;;1.40;99.90;;;;;;5062146;28;20391;-67
2022/12/01 08:08:24;;;;;;;36.83;16.95;;;1.50;99.90;;;;;;5056070;28;20100;-66
2022/12/01 08:10:50;;;;;;;35.05;15.63;;;1.60;99.90;;;;;;5061838;28;20499;-65
2022/12/01 08:13:15;;;;;;;31.30;16.13;;;1.80;99.90;;;;;;5074331;28;20027;-67
2022/12/01 08:15:41;;;;;;;29.42;14.95;;;2.00;99.90;;;;;;5075696;28;20028;-69
2022/12/01 08:18:07;;;;;;;26.83;13.93;;;2.00;99.90;;;;;;5074420;28;20056;-68
2022/12/01 08:20:32;;;;;;;29.52;14.38;;;2.20;99.90;;;;;;5075444;28;20036;-68
2022/12/01 08:23:01;;;;;;;30.63;16.58;;;2.30;99.90;;;;;;5058823;28;20023;-67
2022/12/01 08:25:28;;;;;;;33.00;17.33;;;2.40;99.90;;;;;;5055593;28;20031;-68
2022/12/01 08:27:54;;;;;;;48.13;21.25;;;2.60;99.90;;;;;;5058831;28;20048;-67
2022/12/01 08:30:20;;;;;;;48.85;22.48;;;2.60;99.90;;;;;;5055121;28;20525;-68
2022/12/01 08:32:45;;;;;;;42.38;18.88;;;2.80;99.90;;;;;;5055390;28;20021;-72
2022/12/01 08:35:11;;;;;;;40.15;18.48;;;3.10;99.90;;;;;;5057252;28;20544;-65
2022/12/01 08:37:37;;;;;;;42.00;19.13;;;3.20;99.90;;;;;;5055320;28;20021;-70
2022/12/01 08:40:03;;;;;;;51.72;22.17;;;3.60;99.90;;;;;;5055181;28;20041;-69
2022/12/01 08:42:28;;;;;;;35.75;18.98;;;3.80;99.90;;;;;;5054896;28;20387;-68
2022/12/01 08:44:54;;;;;;;47.15;24.10;;;3.90;99.90;;;;;;5055227;28;20032;-67
2022/12/01 08:47:19;;;;;;;30.08;16.80;;;3.90;99.90;;;;;;5081339;28;20054;-69
2022/12/01 08:49:45;;;;;;;29.77;14.25;;;3.90;99.90;;;;;;5075789;28;20474;-69
2022/12/01 08:52:11;;;;;;;28.42;13.52;;;4.00;99.90;;;;;;5074862;28;20104;-69
2022/12/01 08:54:36;;;;;;;35.72;15.55;;;4.30;99.90;;;;;;5078010;28;20052;-70
2022/12/01 08:57:02;;;;;;;40.08;18.83;;;4.40;99.90;;;;;;5065337;28;20025;-70
2022/12/01 08:59:27;;;;;;;50.67;20.17;;;4.40;99.90;;;;;;5066149;28;20111;-69
2022/12/01 09:01:53;;;;;;;44.88;20.20;;;4.40;99.90;;;;;;5066741;28;20025;-67
2022/12/01 09:04:21;;;;;;;42.35;17.13;;;4.40;99.90;;;;;;5069910;28;20036;-67
2022/12/01 09:06:49;;;;;;;106.90;20.40;;;4.50;99.90;;;;;;5055077;28;20035;-69
2022/12/01 09:09:18;;;;;;;31.45;16.45;;;4.40;99.90;;;;;;5061977;28;20028;-69
2022/12/01 09:11:44;;;;;;;40.90;16.92;;;4.60;99.90;;;;;;5054034;28;20025;-69
2022/12/01 09:14:15;;;;;;;40.10;19.50;;;4.60;99.90;;;;;;5053534;28;20029;-69
2022/12/01 09:16:42;;;;;;;35.83;18.65;;;4.90;99.90;;;;;;5057856;28;20017;-66
2022/12/01 09:19:08;;;;;;;32.28;18.05;;;5.10;99.90;;;;;;5057204;28;20483;-67
2022/12/01 09:21:38;;;;;;;37.42;15.32;;;5.20;99.90;;;;;;5064240;28;20028;-70
2022/12/01 09:24:05;;;;;;;28.23;13.52;;;5.20;99.90;;;;;;5073395;28;20032;-70
2022/12/01 09:26:32;;;;;;;29.42;14.00;;;5.20;99.90;;;;;;5072469;28;20028;-69
2022/12/01 09:29:00;;;;;;;28.05;13.25;;;5.30;99.90;;;;;;5074665;28;20048;-69
2022/12/01 09:31:26;;;;;;;26.13;12.85;;;5.30;99.90;;;;;;5074281;28;20028;-70
2022/12/01 09:33:57;;;;;;;24.75;13.15;;;5.50;99.90;;;;;;5074118;28;20035;-69
2022/12/01 09:36:23;;;;;;;27.38;12.88;;;5.80;99.90;;;;;;5073909;28;20078;-67
2022/12/01 09:38:48;;;;;;;23.30;12.77;;;5.90;99.90;;;;;;5074558;28;20032;-68
2022/12/01 09:41:28;;;;;;;23.55;12.70;;;6.10;99.90;;;;;;5073705;28;20024;-69
2022/12/01 09:44:04;;;;;;;29.83;14.68;;;6.10;99.90;;;;;;5072780;28;20032;-69
2022/12/01 09:46:40;;;;;;;27.00;13.57;;;6.10;99.90;;;;;;5074272;28;20016;-69
2022/12/01 09:49:11;;;;;;;27.55;14.48;;;6.10;99.90;;;;;;5071759;28;20024;-67
2022/12/01 09:51:37;;;;;;;25.75;13.02;;;6.60;99.90;;;;;;5074049;28;20111;-68
2022/12/01 09:54:03;;;;;;;21.83;12.38;;;6.70;99.90;;;;;;5073365;28;20095;-68
2022/12/01 09:56:39;;;;;;;31.17;13.75;;;6.80;99.90;;;;;;5073103;28;20025;-68
2022/12/01 09:59:07;;;;;;;25.40;13.13;;;7.90;99.90;;;;;;5073931;28;20024;-70
2022/12/01 10:01:40;;;;;;;30.38;16.17;;;8.80;99.90;;;;;;5071190;28;20024;-69
2022/12/01 10:04:43;;;;;;;26.52;13.48;;;9.10;99.90;;;;;;5072054;28;20070;-70
2022/12/01 10:07:39;;;;;;;20.33;11.73;;;9.30;99.90;;;;;;5050400;28;20035;-69
2022/12/01 10:10:12;;;;;;;18.58;10.20;;;10.20;99.90;;;;;;5062212;28;20030;-69
2022/12/01 10:12:40;;;;;;;22.75;11.80;;;10.50;99.90;;;;;;5072696;28;20029;-69
2022/12/01 10:15:12;;;;;;;22.55;11.93;;;10.30;99.90;;;;;;5073354;28;20494;-68
2022/12/01 10:17:56;;;;;;;22.52;12.07;;;10.50;99.90;;;;;;5073604;28;20035;-67
2022/12/01 10:20:32;;;;;;;22.83;12.18;;;10.20;99.90;;;;;;5073471;28;20069;-70
2022/12/01 10:23:30;;;;;;;21.92;12.40;;;10.10;99.90;;;;;;5073327;28;20032;-68
2022/12/01 10:26:07;;;;;;;23.65;12.90;;;9.60;99.90;;;;;;5018082;28;20522;-68
2022/12/01 10:28:57;;;;;;;22.52;13.48;;;8.80;99.90;;;;;;5073833;28;20034;-69
2022/12/01 10:31:34;;;;;;;25.50;12.60;;;8.50;99.90;;;;;;5081848;28;20024;-68
2022/12/01 10:34:09;;;;;;;24.00;13.93;;;8.00;99.90;;;;;;5073061;28;20032;-68
2022/12/01 10:36:35;;;;;;;27.92;13.38;;;7.50;99.90;;;;;;5088627;28;20035;-68
2022/12/01 10:39:05;;;;;;;24.88;15.43;;;7.30;99.90;;;;;;5085602;28;20100;-68
2022/12/01 10:41:34;;;;;;;23.17;13.80;;;7.20;99.90;;;;;;5072291;28;20064;-70
2022/12/01 10:44:04;;;;;;;24.48;14.82;;;7.10;99.90;;;;;;5054425;28;20028;-70
2022/12/01 10:46:39;;;;;;;26.58;14.55;;;7.10;99.90;;;;;;5072550;28;20025;-70
2022/12/01 10:49:13;;;;;;;26.90;14.75;;;7.40;99.90;;;;;;5073136;28;20013;-69
2022/12/01 10:51:48;;;;;;;22.67;12.65;;;7.60;99.90;;;;;;5072823;28;20029;-69
2022/12/01 10:54:14;;;;;;;23.73;13.27;;;7.70;99.90;;;;;;5052952;28;20479;-69
2022/12/01 10:56:41;;;;;;;26.88;13.90;;;7.30;99.90;;;;;;5066840;28;20116;-69
2022/12/01 10:59:36;;;;;;;22.50;13.63;;;7.20;99.90;;;;;;5073076;28;20146;-68
2022/12/01 11:02:13;;;;;;;25.20;14.15;;;7.10;99.90;;;;;;5062990;28;20041;-67
2022/12/01 11:04:46;;;;;;;27.30;14.43;;;6.90;99.90;;;;;;5066458;28;20539;-69
2022/12/01 11:07:24;;;;;;;25.88;13.80;;;6.50;99.90;;;;;;5058726;28;20021;-66
2022/12/01 11:10:19;;;;;;;24.27;12.93;;;6.10;99.90;;;;;;5053056;28;20025;-69
2022/12/01 11:13:11;;;;;;;28.73;13.40;;;6.20;99.90;;;;;;5075465;28;20048;-68
2022/12/01 11:15:39;;;;;;;29.23;12.77;;;5.80;99.90;;;;;;5072314;28;20051;-66
2022/12/01 11:18:31;;;;;;;28.90;12.68;;;5.70;99.90;;;;;;5054325;28;20474;-69
2022/12/01 11:21:26;;;;;;;26.33;11.73;;;5.60;99.90;;;;;;5059703;28;20401;-66
2022/12/01 11:23:54;;;;;;;30.80;12.70;;;5.60;99.90;;;;;;5074271;28;20044;-66
2022/12/01 11:26:29;;;;;;;30.23;13.65;;;5.60;99.90;;;;;;5068547;28;20020;-69
2022/12/01 11:29:06;;;;;;;27.52;11.80;;;5.60;99.90;;;;;;5076233;28;20029;-68
2022/12/01 11:31:42;;;;;;;28.48;11.80;;;5.80;99.90;;;;;;5075772;28;20020;-69
2022/12/01 11:34:28;;;;;;;33.17;13.68;;;5.80;99.90;;;;;;5074317;28;20024;-71
2022/12/01 11:36:57;;;;;;;29.95;12.63;;;5.60;99.90;;;;;;5074970;28;20021;-67
2022/12/01 11:39:40;;;;;;;34.72;14.13;;;5.80;99.90;;;;;;5073760;28;20020;-71
2022/12/01 11:42:29;;;;;;;32.53;14.57;;;6.20;99.90;;;;;;5073683;28;20394;-69
2022/12/01 11:45:06;;;;;;;34.10;14.68;;;6.10;99.90;;;;;;5074322;28;20025;-70
2022/12/01 11:47:32;;;;;;;36.63;14.75;;;6.30;99.90;;;;;;5074476;28;20024;-69
2022/12/01 11:50:03;;;;;;;29.42;13.35;;;6.30;99.90;;;;;;5074564;28;20033;-70
2022/12/01 11:52:37;;;;;;;32.03;14.30;;;6.20;99.90;;;;;;5056542;28;20437;-72
2022/12/01 11:55:12;;;;;;;31.55;14.18;;;6.50;99.90;;;;;;5075486;28;20465;-73
2022/12/01 11:57:44;;;;;;;35.97;15.65;;;6.70;99.90;;;;;;5075800;28;20063;-71
2022/12/01 12:00:26;;;;;;;39.33;15.13;;;6.50;99.90;;;;;;5076183;28;20028;-69
2022/12/01 12:03:00;;;;;;;35.08;13.90;;;6.60;99.90;;;;;;5076293;28;20020;-70
2022/12/01 12:05:55;;;;;;;30.05;14.43;;;6.70;99.90;;;;;;5076211;28;20112;-70
2022/12/01 12:08:27;;;;;;;32.55;14.40;;;6.80;99.90;;;;;;5075891;28;20013;-69
2022/12/01 12:10:55;;;;;;;33.78;15.18;;;7.00;99.90;;;;;;5075422;28;20474;-68
2022/12/01 12:13:51;;;;;;;35.25;15.15;;;7.10;99.90;;;;;;5075770;28;20382;-71
2022/12/01 12:16:52;;;;;;;30.65;13.38;;;6.90;99.90;;;;;;5075833;28;20056;-71
2022/12/01 12:19:36;;;;;;;;;;;7.10;99.90;;;;;;5020935;28;20037;-68
2022/12/01 12:22:19;;;;;;;32.42;15.02;;;7.30;99.90;;;;;;5075288;28;19912;-69
2022/12/01 12:25:23;;;;;;;31.92;15.15;;;7.60;99.90;;;;;;5075983;28;20020;-69
2022/12/01 12:28:17;;;;;;;37.70;15.40;;;7.40;99.90;;;;;;5023946;28;20509;-71
2022/12/01 12:30:51;;;;;;;36.30;15.45;;;7.40;99.90;;;;;;5066000;28;20048;-71
2022/12/01 12:33:23;;;;;;;36.95;15.15;;;7.40;99.90;;;;;;5074385;28;20025;-71
2022/12/01 12:35:55;;;;;;;36.58;15.52;;;7.80;99.90;;;;;;5075150;28;20028;-69
2022/12/01 12:38:39;;;;;;;32.78;16.15;;;7.90;99.90;;;;;;5075316;28;20543;-67
2022/12/01 12:41:21;;;;;;;34.72;14.48;;;8.10;99.90;;;;;;5075197;28;20028;-69
2022/12/01 12:43:50;;;;;;;43.92;17.02;;;8.20;99.90;;;;;;5075079;28;20021;-72
2022/12/01 12:46:47;;;;;;;35.35;15.70;;;8.00;99.90;;;;;;5074785;28;20100;-70
2022/12/01 12:49:23;;;;;;;36.40;16.13;;;8.10;99.90;;;;;;5075137;28;20020;-69
2022/12/01 12:52:00;;;;;;;37.25;17.30;;;8.00;99.90;;;;;;5074683;28;20032;-68
2022/12/01 12:54:37;;;;;;;39.47;16.83;;;8.00;99.90;;;;;;5074560;28;20057;-69
2022/12/01 12:57:31;;;;;;;40.22;18.23;;;8.00;99.90;;;;;;5074694;28;20033;-69
2022/12/01 13:00:04;;;;;;;42.85;17.70;;;8.00;99.90;;;;;;5075097;28;20034;-67
2022/12/01 13:02:53;;;;;;;34.50;15.93;;;7.90;99.90;;;;;;5074506;28;20020;-68
2022/12/01 13:05:22;;;;;;;40.72;17.52;;;8.00;99.90;;;;;;5074790;28;20017;-70